Time;durP1;ratioP1;P1;durP2;ratioP2;P2;SDS_P1;SDS_P2;PMS_P1;PMS_P2;Temp;Humidity;BMP_temperature;BMP_pressure;BME280_temperature;BME280_humidity;BME280_pressure;Samples;Min_cycle;Max_cycle;Signal;HPM_P1;HPM_P2
2023/10/26 00:01:48;;;;;;;1.50;1.50;;;;;;;16.39;100.00;96090.66;4984749;28;20076;-61
2023/10/26 00:04:15;;;;;;;1.65;1.65;;;;;;;16.46;100.00;96112.88;4993022;28;20050;-61
2023/10/26 00:06:42;;;;;;;1.60;1.60;;;;;;;16.71;100.00;96145.94;5004192;28;20042;-61
2023/10/26 00:09:08;;;;;;;1.60;1.60;;;;;;;16.25;100.00;96058.19;5004243;28;20309;-61
2023/10/26 00:11:35;;;;;;;1.40;1.40;;;;;;;16.69;100.00;96120.41;5004075;28;20092;-61
2023/10/26 00:14:02;;;;;;;1.60;1.60;;;;;;;16.60;100.00;96118.97;5003777;28;20528;-61
2023/10/26 00:16:29;;;;;;;1.70;1.70;;;;;;;16.65;100.00;96126.06;5004982;28;20058;-61
2023/10/26 00:18:56;;;;;;;1.60;1.60;;;;;;;16.68;100.00;96130.78;5007848;28;20413;-61
2023/10/26 00:21:22;;;;;;;1.52;1.52;;;;;;;16.27;100.00;96083.72;4990275;28;20050;-61
2023/10/26 00:23:49;;;;;;;1.52;1.52;;;;;;;16.51;100.00;96121.56;5007904;28;20143;-61
2023/10/26 00:26:16;;;;;;;1.58;1.58;;;;;;;16.55;100.00;96127.06;5007202;28;20060;-61
2023/10/26 00:28:42;;;;;;;1.50;1.50;;;;;;;16.48;100.00;96122.44;4990451;28;20073;-61
2023/10/26 00:31:09;;;;;;;1.65;1.65;;;;;;;16.50;100.00;96128.38;5007841;28;20053;-61
2023/10/26 00:33:36;;;;;;;1.65;1.65;;;;;;;16.49;100.00;96118.41;5007327;28;20061;-61
2023/10/26 00:36:03;;;;;;;1.65;1.65;;;;;;;16.33;100.00;96121.09;5007539;28;20057;-61
2023/10/26 00:38:30;;;;;;;1.52;1.52;;;;;;;16.28;100.00;96088.06;5007156;28;20550;-61
2023/10/26 00:40:56;;;;;;;1.50;1.50;;;;;;;16.36;100.00;96094.31;5007767;28;20058;-61
2023/10/26 00:43:26;;;;;;;1.50;1.50;;;;;;;16.27;100.00;96077.31;4989641;28;20053;-61
2023/10/26 00:45:53;;;;;;;1.38;1.38;;;;;;;16.34;100.00;96105.91;5002703;28;20543;-60
2023/10/26 00:48:21;;;;;;;1.52;1.52;;;;;;;16.34;100.00;96111.50;5026942;28;20081;-61
2023/10/26 00:50:48;;;;;;;1.52;1.52;;;;;;;16.18;100.00;96091.88;5026744;28;20511;-61
2023/10/26 00:53:20;;;;;;;1.60;1.60;;;;;;;16.30;100.00;96113.59;5026447;28;20061;-61
2023/10/26 00:55:49;;;;;;;1.50;1.50;;;;;;;16.31;100.00;96117.19;5026650;28;20471;-61
2023/10/26 00:58:17;;;;;;;1.50;1.50;;;;;;;16.23;100.00;96115.75;5008764;28;20507;-61
2023/10/26 01:00:44;;;;;;;1.40;1.40;;;;;;;16.31;100.00;96131.91;5026538;28;20661;-61
2023/10/26 01:03:13;;;;;;;1.30;1.30;;;;;;;16.40;100.00;96132.16;5025553;28;20849;-61
2023/10/26 01:05:40;;;;;;;1.50;1.50;;;;;;;16.07;100.00;96133.22;5026286;28;20053;-61
2023/10/26 01:08:06;;;;;;;1.30;1.30;;;;;;;15.88;100.00;96136.75;5009268;28;20144;-61
2023/10/26 01:10:35;;;;;;;1.40;1.40;;;;;;;15.58;100.00;96136.91;5026756;28;20052;-61
2023/10/26 01:13:04;;;;;;;1.50;1.50;;;;;;;15.55;100.00;96109.03;5026355;28;20080;-61
2023/10/26 01:15:30;;;;;;;1.30;1.30;;;;;;;15.72;100.00;96122.69;5008919;28;20054;-61
2023/10/26 01:17:57;;;;;;;1.30;1.30;;;;;;;15.81;100.00;96122.91;5026480;28;20089;-61
2023/10/26 01:20:24;;;;;;;1.50;1.50;;;;;;;15.93;100.00;96115.91;5026638;28;20053;-61
2023/10/26 01:22:51;;;;;;;1.40;1.40;;;;;;;15.85;100.00;96123.66;5008526;28;20061;-61
2023/10/26 01:25:17;;;;;;;1.40;1.40;;;;;;;15.96;100.00;96113.06;5026027;28;20053;-61
2023/10/26 01:27:44;;;;;;;1.30;1.30;;;;;;;15.96;100.00;96129.03;5025409;28;20079;-61
2023/10/26 01:30:12;;;;;;;1.42;1.42;;;;;;;15.69;100.00;96092.81;5025747;28;20382;-61
2023/10/26 01:32:39;;;;;;;1.50;1.50;;;;;;;15.72;100.00;96113.50;5026208;28;20132;-61
2023/10/26 01:35:06;;;;;;;1.30;1.30;;;;;;;15.83;100.00;96111.31;5026004;28;20165;-61
2023/10/26 01:37:33;;;;;;;1.30;1.30;;;;;;;15.74;100.00;96111.88;5026622;28;20514;-61
2023/10/26 01:40:00;;;;;;;1.33;1.33;;;;;;;15.54;100.00;96124.97;5025991;28;20053;-61
2023/10/26 01:42:26;;;;;;;1.13;1.13;;;;;;;15.44;100.00;96119.59;5025690;28;20053;-61
2023/10/26 01:44:53;;;;;;;1.30;1.30;;;;;;;15.68;100.00;96135.13;5025663;28;20502;-61
2023/10/26 01:47:20;;;;;;;1.40;1.40;;;;;;;15.54;100.00;96108.25;5025720;28;20125;-61
2023/10/26 01:49:47;;;;;;;1.40;1.40;;;;;;;15.81;100.00;96142.47;5025662;28;20622;-61
2023/10/26 01:52:14;;;;;;;1.50;1.50;;;;;;;15.83;100.00;96142.81;5025558;28;20558;-61
2023/10/26 01:54:40;;;;;;;1.40;1.40;;;;;;;15.90;100.00;96148.28;5025970;28;20049;-61
2023/10/26 01:57:07;;;;;;;1.48;1.48;;;;;;;15.90;100.00;96156.66;5025899;28;20130;-61
2023/10/26 01:59:34;;;;;;;1.45;1.45;;;;;;;16.02;100.00;96150.47;5025522;28;20575;-61
2023/10/26 02:02:01;;;;;;;1.35;1.35;;;;;;;15.94;100.00;96142.63;5007930;28;20057;-61
2023/10/26 02:04:28;;;;;;;1.35;1.35;;;;;;;15.92;100.00;96145.84;5008253;28;20174;-61
2023/10/26 02:06:54;;;;;;;1.50;1.50;;;;;;;15.93;100.00;96136.25;5025940;28;20061;-61
2023/10/26 02:09:21;;;;;;;1.30;1.30;;;;;;;16.01;100.00;96140.47;5025581;28;20049;-61
2023/10/26 02:11:48;;;;;;;1.30;1.30;;;;;;;15.86;100.00;96096.50;5007778;28;20057;-61
2023/10/26 02:14:15;;;;;;;1.55;1.55;;;;;;;15.90;100.00;96131.50;5024853;28;20072;-61
2023/10/26 02:16:41;;;;;;;1.40;1.40;;;;;;;15.02;100.00;96079.19;5025478;28;20413;-61
2023/10/26 02:19:08;;;;;;;1.60;1.60;;;;;;;15.06;100.00;96083.50;5024907;28;20538;-61
2023/10/26 02:21:35;;;;;;;1.30;1.30;;;;;;;15.28;100.00;96134.16;5025331;28;20161;-61
2023/10/26 02:24:02;;;;;;;1.33;1.33;;;;;;;15.33;100.00;96139.28;5025108;28;20505;-61
2023/10/26 02:26:29;;;;;;;1.20;1.20;;;;;;;15.21;100.00;96139.09;5025044;28;20640;-61
2023/10/26 02:28:55;;;;;;;1.30;1.30;;;;;;;15.23;100.00;96142.22;5025079;28;20046;-61
2023/10/26 02:31:22;;;;;;;1.20;1.20;;;;;;;15.33;100.00;96136.50;5025094;28;20500;-61
2023/10/26 02:33:49;;;;;;;1.30;1.30;;;;;;;15.42;100.00;96145.13;5024704;28;20059;-61
2023/10/26 02:36:15;;;;;;;1.40;1.40;;;;;;;15.20;100.00;96110.38;5007298;28;20475;-61
2023/10/26 02:38:42;;;;;;;1.30;1.30;;;;;;;15.46;100.00;96145.84;5007279;28;20088;-61
2023/10/26 02:41:09;;;;;;;1.42;1.42;;;;;;;12.93;100.00;95754.00;5024796;28;20041;-61
2023/10/26 02:43:35;;;;;;;1.40;1.40;;;;;;;15.57;100.00;96129.72;5007104;28;20526;-61
2023/10/26 02:46:06;;;;;;;1.20;1.20;;;;;;;15.23;100.00;96087.22;5024615;28;20516;-61
2023/10/26 02:48:33;;;;;;;1.38;1.38;;;;;;;15.48;100.00;96129.47;5024651;28;20057;-61
2023/10/26 02:51:01;;;;;;;1.30;1.30;;;;;;;15.45;100.00;96138.69;5024494;28;20056;-61
2023/10/26 02:53:28;;;;;;;1.40;1.40;;;;;;;15.44;100.00;96120.38;5024215;28;20144;-62
2023/10/26 02:55:54;;;;;;;1.40;1.40;;;;;;;15.43;100.00;96129.19;5006856;28;20154;-61
2023/10/26 02:58:21;;;;;;;1.35;1.35;;;;;;;14.41;100.00;95941.97;5024695;28;20053;-61
2023/10/26 03:00:48;;;;;;;1.13;1.13;;;;;;;15.19;100.00;96083.69;5024646;28;20072;-61
2023/10/26 03:03:15;;;;;;;1.20;1.20;;;;;;;15.25;100.00;96106.31;5024068;28;20042;-61
2023/10/26 03:05:42;;;;;;;1.17;1.17;;;;;;;15.11;100.00;96096.19;5024010;28;20415;-61
2023/10/26 03:08:09;;;;;;;1.30;1.30;;;;;;;15.06;100.00;96094.66;5024489;28;20057;-61
2023/10/26 03:10:36;;;;;;;1.40;1.40;;;;;;;14.96;100.00;96083.66;5023925;28;20051;-61
2023/10/26 03:13:04;;;;;;;1.20;1.20;;;;;;;14.79;100.00;96068.81;5024236;28;20060;-61
2023/10/26 03:15:31;;;;;;;1.20;1.20;;;;;;;15.09;100.00;96102.16;5024168;28;20059;-61
2023/10/26 03:17:58;;;;;;;1.30;1.30;;;;;;;15.10;100.00;96086.22;5024302;28;20127;-61
2023/10/26 03:20:25;;;;;;;1.20;1.20;;;;;;;14.80;100.00;96042.50;5024517;28;20049;-61
2023/10/26 03:22:52;;;;;;;1.20;1.20;;;;;;;15.28;100.00;96117.44;5024536;28;20056;-61
2023/10/26 03:25:19;;;;;;;1.40;1.40;;;;;;;15.30;100.00;96114.22;5023803;28;20087;-61
2023/10/26 03:27:45;;;;;;;1.30;1.30;;;;;;;15.35;100.00;96117.31;5006566;28;20132;-61
2023/10/26 03:30:12;;;;;;;1.20;1.20;;;;;;;15.31;100.00;96110.22;5023546;28;20595;-61
2023/10/26 03:32:39;;;;;;;1.27;1.27;;;;;;;15.24;100.00;96116.69;5024179;28;20076;-60
2023/10/26 03:35:08;;;;;;;1.27;1.27;;;;;;;15.07;100.00;96112.19;5023928;28;20135;-61
2023/10/26 03:37:36;;;;;;;1.10;1.10;;;;;;;14.88;100.00;96084.97;5024254;28;20052;-61
2023/10/26 03:40:05;;;;;;;1.20;1.20;;;;;;;14.95;100.00;96109.97;5024191;28;20049;-61
2023/10/26 03:42:32;;;;;;;1.20;1.20;;;;;;;14.99;100.00;96111.50;5024004;28;20060;-61
2023/10/26 03:44:59;;;;;;;1.20;1.20;;;;;;;14.78;100.00;96046.88;5022445;28;20479;-61
2023/10/26 03:47:26;;;;;;;1.30;1.30;;;;;;;15.17;100.00;96100.84;5023927;28;20049;-61
2023/10/26 03:49:53;;;;;;;1.35;1.35;;;;;;;14.66;100.00;96058.63;5023653;28;20046;-61
2023/10/26 03:52:20;;;;;;;1.25;1.25;;;;;;;15.05;100.00;96104.22;5023608;28;20056;-61
2023/10/26 03:54:47;;;;;;;1.20;1.20;;;;;;;15.10;100.00;96119.69;5023572;28;20054;-61
2023/10/26 03:57:15;;;;;;;1.15;1.15;;;;;;;15.09;100.00;96126.50;5023929;28;20064;-61
2023/10/26 03:59:42;;;;;;;1.20;1.20;;;;;;;15.08;100.00;96119.31;5023515;28;20172;-62
2023/10/26 04:02:10;;;;;;;1.30;1.30;;;;;;;15.06;100.00;96099.47;5006060;28;20049;-61
2023/10/26 04:04:38;;;;;;;1.20;1.20;;;;;;;15.27;100.00;96104.69;5023492;28;20139;-61
2023/10/26 04:07:05;;;;;;;1.27;1.27;;;;;;;15.22;100.00;96105.19;5023855;28;20056;-61
2023/10/26 04:09:31;;;;;;;1.20;1.20;;;;;;;15.08;100.00;96071.91;5006027;28;20045;-61
2023/10/26 04:11:58;;;;;;;1.40;1.40;;;;;;;15.18;100.00;96112.81;5005992;28;20080;-61
2023/10/26 04:14:26;;;;;;;1.20;1.20;;;;;;;15.16;100.00;96101.25;5023680;28;20057;-61
2023/10/26 04:16:52;;;;;;;1.20;1.20;;;;;;;14.76;100.00;96024.25;5023528;28;20436;-61
2023/10/26 04:19:19;;;;;;;1.20;1.20;;;;;;;15.28;100.00;96100.69;5023195;28;20528;-61
2023/10/26 04:21:46;;;;;;;1.20;1.20;;;;;;;14.76;100.00;96030.59;5023807;28;20053;-61
2023/10/26 04:24:13;;;;;;;1.10;1.10;;;;;;;15.22;100.00;96107.16;5005675;28;20436;-61
2023/10/26 04:26:39;;;;;;;1.20;1.20;;;;;;;15.18;100.00;96110.00;5022850;28;20054;-61
2023/10/26 04:29:06;;;;;;;1.30;1.30;;;;;;;15.20;100.00;96104.81;5023442;28;20056;-61
2023/10/26 04:31:34;;;;;;;1.30;1.30;;;;;;;15.11;100.00;96101.78;5023718;28;20053;-61
2023/10/26 04:34:01;;;;;;;1.30;1.30;;;;;;;15.15;100.00;96108.06;5023615;28;20100;-61
2023/10/26 04:36:27;;;;;;;1.50;1.50;;;;;;;15.21;100.00;96094.44;5023470;28;20056;-61
2023/10/26 04:38:54;;;;;;;1.30;1.30;;;;;;;15.12;100.00;96075.44;5023386;28;20049;-61
2023/10/26 04:41:21;;;;;;;1.45;1.45;;;;;;;15.31;100.00;96088.69;5023645;28;20050;-61
2023/10/26 04:43:48;;;;;;;1.20;1.20;;;;;;;15.27;100.00;96093.50;5023373;28;20103;-61
2023/10/26 04:46:14;;;;;;;1.40;1.40;;;;;;;14.97;100.00;96035.03;5021608;28;20145;-62
2023/10/26 04:48:42;;;;;;;1.40;1.40;;;;;;;15.36;100.00;96085.41;5022836;28;20134;-62
2023/10/26 04:51:09;;;;;;;1.25;1.25;;;;;;;15.35;100.00;96094.97;5022869;28;20080;-61
2023/10/26 04:53:35;;;;;;;1.40;1.40;;;;;;;15.29;100.00;96107.84;5005347;28;20147;-61
2023/10/26 04:56:02;;;;;;;1.40;1.40;;;;;;;15.35;100.00;96100.56;5022800;28;20053;-61
2023/10/26 04:58:29;;;;;;;1.30;1.30;;;;;;;15.40;100.00;96099.31;5022891;28;20136;-61
2023/10/26 05:00:56;;;;;;;1.23;1.23;;;;;;;15.40;100.00;96108.47;5004961;28;20432;-61
2023/10/26 05:03:23;;;;;;;1.50;1.50;;;;;;;15.53;100.00;96101.09;5022464;28;20129;-61
2023/10/26 05:05:49;;;;;;;1.40;1.40;;;;;;;15.54;100.00;96113.81;5026065;28;20132;-61
2023/10/26 05:08:16;;;;;;;1.23;1.23;;;;;;;15.56;100.00;96116.97;5026036;28;20467;-61
2023/10/26 05:10:44;;;;;;;1.42;1.42;;;;;;;15.55;100.00;96115.41;5026420;28;20057;-61
2023/10/26 05:13:11;;;;;;;1.40;1.40;;;;;;;15.34;100.00;96082.25;5026031;28;20045;-61
2023/10/26 05:15:38;;;;;;;1.30;1.30;;;;;;;15.61;100.00;96113.72;5026289;28;20076;-61
2023/10/26 05:18:05;;;;;;;1.27;1.27;;;;;;;15.34;100.00;96070.28;5026821;28;20056;-61
2023/10/26 05:20:32;;;;;;;1.15;1.15;;;;;;;15.72;100.00;96125.47;5026191;28;20127;-61
2023/10/26 05:23:01;;;;;;;1.52;1.52;;;;;;;15.86;100.00;96119.63;5026402;28;20085;-61
2023/10/26 05:25:29;;;;;;;1.40;1.40;;;;;;;15.84;100.00;96116.47;5025774;28;20057;-61
2023/10/26 05:27:55;;;;;;;1.60;1.60;;;;;;;15.86;100.00;96125.22;5026038;28;20056;-61
2023/10/26 05:30:23;;;;;;;1.45;1.45;;;;;;;15.82;100.00;96121.69;5007184;28;20465;-61
2023/10/26 05:32:50;;;;;;;1.50;1.50;;;;;;;15.87;100.00;96131.59;5013735;28;20081;-61
2023/10/26 05:35:18;;;;;;;1.50;1.50;;;;;;;15.67;100.00;96095.25;5005207;28;20524;-61
2023/10/26 05:37:45;;;;;;;1.30;1.30;;;;;;;15.78;100.00;96118.19;5005500;28;20606;-61
2023/10/26 05:40:12;;;;;;;1.60;1.60;;;;;;;15.60;100.00;96084.19;5005175;28;20473;-61
2023/10/26 05:42:39;;;;;;;1.40;1.40;;;;;;;15.50;100.00;96113.09;4652533;28;10000755;-61
2023/10/26 05:45:06;;;;;;;1.23;1.23;;;;;;;15.58;100.00;96117.34;5010655;28;20056;-61
2023/10/26 05:47:33;;;;;;;1.30;1.30;;;;;;;15.68;100.00;96118.38;5008644;28;20045;-64
2023/10/26 05:50:00;;;;;;;1.40;1.40;;;;;;;15.80;100.00;96115.75;5017553;28;20133;-57
2023/10/26 05:52:26;;;;;;;1.30;1.30;;;;;;;16.02;100.00;96111.34;5032248;28;20056;-54
2023/10/26 05:54:53;;;;;;;1.40;1.40;;;;;;;15.76;100.00;96070.34;5013465;28;20061;-55
2023/10/26 05:57:20;;;;;;;1.27;1.27;;;;;;;16.11;99.31;96086.41;5017854;28;20057;-65
2023/10/26 05:59:47;;;;;;;1.50;1.50;;;;;;;16.52;99.50;96123.13;5022932;28;20050;-53
2023/10/26 06:02:14;;;;;;;1.70;1.70;;;;;;;16.63;99.04;96128.50;5030454;28;20049;-60
2023/10/26 06:04:40;;;;;;;1.75;1.75;;;;;;;16.62;98.86;96149.31;5023751;28;20052;-53
2023/10/26 06:07:08;;;;;;;1.50;1.50;;;;;;;16.70;97.50;96138.75;5023325;28;20128;-53
2023/10/26 06:09:34;;;;;;;1.42;1.42;;;;;;;16.93;94.59;96152.63;5022965;28;20073;-54
2023/10/26 06:12:01;;;;;;;1.40;1.40;;;;;;;16.85;94.92;96148.41;5022169;28;20092;-61
2023/10/26 06:14:28;;;;;;;1.60;1.60;;;;;;;16.85;95.05;96156.81;5024223;28;20053;-52
2023/10/26 06:16:54;;;;;;;1.50;1.50;;;;;;;16.87;94.62;96154.34;5024761;28;20046;-61
2023/10/26 06:19:21;;;;;;;1.58;1.58;;;;;;;16.80;95.07;96137.75;5016915;28;20820;-53
2023/10/26 06:21:48;;;;;;;1.67;1.67;;;;;;;16.91;95.50;96149.47;5019384;28;20065;-55
2023/10/26 06:24:15;;;;;;;1.55;1.55;;;;;;;17.03;95.49;96148.81;5015793;28;20076;-63
2023/10/26 06:26:42;;;;;;;1.63;1.63;;;;;;;17.16;95.76;96194.47;5023921;28;20097;-62
2023/10/26 06:29:08;;;;;;;1.50;1.50;;;;;;;17.28;93.44;96163.00;5022579;28;20045;-53
2023/10/26 06:31:35;;;;;;;1.60;1.60;;;;;;;17.23;92.42;96133.53;5021705;28;20049;-53
2023/10/26 06:34:02;;;;;;;1.83;1.83;;;;;;;17.14;92.46;96101.78;5023336;28;20129;-54
2023/10/26 06:36:29;;;;;;;1.65;1.65;;;;;;;17.72;91.31;96165.19;5022017;28;20065;-62
2023/10/26 06:38:56;;;;;;;1.70;1.70;;;;;;;17.75;89.55;96153.88;5021900;28;20085;-60
2023/10/26 06:41:23;;;;;;;1.60;1.60;;;;;;;17.76;89.72;96161.06;5007907;28;20628;-53
2023/10/26 06:43:51;;;;;;;1.80;1.80;;;;;;;17.68;90.03;96142.88;5013257;28;20061;-57
2023/10/26 06:46:19;;;;;;;1.80;1.80;;;;;;;17.80;90.13;96147.75;5022541;28;20057;-56
2023/10/26 06:48:46;;;;;;;1.90;1.90;;;;;;;17.63;90.59;96123.00;5014097;28;20050;-53
2023/10/26 06:51:13;;;;;;;1.80;1.80;;;;;;;17.92;88.43;96143.47;5013674;28;20061;-53
2023/10/26 06:53:39;;;;;;;1.70;1.70;;;;;;;18.02;89.69;96145.19;5015808;28;20078;-53
2023/10/26 06:56:12;;;;;;;1.90;1.90;;;;;;;18.18;89.40;96147.94;5019995;28;20054;-60
2023/10/26 06:58:42;;;;;;;1.60;1.60;;;;;;;18.23;89.04;96143.81;5022175;28;20049;-54
2023/10/26 07:01:09;;;;;;;1.70;1.70;;;;;;;18.45;87.99;96128.00;4995350;28;20084;-62
2023/10/26 07:03:48;;;;;;;1.70;1.70;;;;;;;18.71;88.12;96140.88;5020081;28;20435;-63
2023/10/26 07:06:15;;;;;;;1.90;1.90;;;;;;;17.21;85.22;95838.53;5018721;28;20144;-56
2023/10/26 07:08:42;;;;;;;1.77;1.77;;;;;;;19.35;84.15;96124.47;5020969;28;20061;-55
2023/10/26 07:11:09;;;;;;;2.10;2.10;;;;;;;19.84;81.94;96135.34;5016869;28;21348;-61
2023/10/26 07:13:35;;;;;;;2.00;2.00;;;;;;;19.88;81.18;96110.69;5007143;28;20057;-56
2023/10/26 07:16:05;;;;;;;2.22;2.22;;;;;;;20.47;78.43;96152.84;5003473;28;20519;-64
2023/10/26 07:18:33;;;;;;;2.10;2.10;;;;;;;20.10;76.48;96066.53;5023339;28;20089;-67
2023/10/26 07:21:05;;;;;;;2.30;2.30;;;;;;;20.11;77.05;96130.75;5020637;28;20045;-67
2023/10/26 07:23:33;;;;;;;2.10;2.10;;;;;;;20.03;78.81;96163.16;4995316;28;20119;-66
2023/10/26 07:26:00;;;;;;;2.03;2.03;;;;;;;20.02;80.71;96197.38;5004292;28;20056;-55
2023/10/26 07:28:27;;;;;;;1.95;1.95;;;;;;;20.17;81.15;96153.50;5023136;28;20052;-55
2023/10/26 07:30:54;;;;;;;1.80;1.80;;;;;;;19.95;81.38;96110.47;5004958;28;20061;-57
2023/10/26 07:33:21;;;;;;;1.90;1.90;;;;;;;19.45;83.11;96105.72;5023070;28;20832;-56
2023/10/26 07:35:50;;;;;;;1.80;1.80;;;;;;;19.68;82.84;96139.06;5004396;28;20049;-63
2023/10/26 07:38:17;;;;;;;2.15;2.15;;;;;;;20.08;81.67;96164.63;5014143;28;20064;-64
2023/10/26 07:41:04;;;;;;;1.95;1.95;;;;;;;20.30;81.02;96171.09;5021442;28;20049;-63
2023/10/26 07:43:33;;;;;;;2.00;2.00;;;;;;;20.24;79.86;96144.81;5014967;28;20049;-55
2023/10/26 07:46:00;;;;;;;1.77;1.77;;;;;;;20.13;79.52;96128.28;5004056;28;20053;-61
2023/10/26 07:48:27;;;;;;;2.13;2.13;;;;;;;19.82;78.89;96061.94;5023146;28;20046;-72
2023/10/26 07:50:55;;;;;;;2.15;2.15;;;;;;;20.52;77.54;96126.91;5022331;28;20053;-53
2023/10/26 07:53:23;;;;;;;2.25;2.25;;;;;;;21.20;77.70;96154.91;5017409;28;20596;-63
2023/10/26 07:55:56;;;;;;;2.10;2.10;;;;;;;21.52;74.20;96148.81;5022387;28;20077;-64
2023/10/26 07:58:27;;;;;;;;;;;;;;;21.50;73.45;96151.31;5020519;28;20096;-56
2023/10/26 08:00:54;;;;;;;1.90;1.90;;;;;;;21.30;74.53;96153.72;5020546;28;19925;-57
2023/10/26 08:03:23;;;;;;;2.17;2.17;;;;;;;21.47;73.62;96162.72;5021984;28;20057;-62
2023/10/26 08:06:09;;;;;;;2.20;2.20;;;;;;;20.61;74.37;96025.69;5009934;28;20570;-65
2023/10/26 08:08:36;;;;;;;2.05;2.05;;;;;;;21.34;74.47;96120.56;5013274;28;20176;-67
2023/10/26 08:11:13;;;;;;;2.50;2.40;;;;;;;21.62;74.54;96192.72;4989388;28;20089;-58
2023/10/26 08:13:41;;;;;;;2.58;2.47;;;;;;;21.16;74.23;96058.50;5014749;28;20057;-63
2023/10/26 08:16:08;;;;;;;2.20;2.20;;;;;;;21.05;77.16;96124.94;5022317;28;20049;-58
2023/10/26 08:18:54;;;;;;;2.10;2.10;;;;;;;21.08;74.76;96074.13;5022018;28;20516;-69
2023/10/26 08:21:21;;;;;;;2.25;2.25;;;;;;;21.28;75.58;96118.78;5005759;28;20092;-57
2023/10/26 08:23:49;;;;;;;2.20;2.20;;;;;;;20.78;76.88;96091.78;5022753;28;20432;-57
2023/10/26 08:26:16;;;;;;;2.10;2.10;;;;;;;21.22;76.48;96113.00;5008292;28;20539;-67
2023/10/26 08:28:42;;;;;;;2.08;2.08;;;;;;;21.76;75.08;96130.16;5005358;28;20136;-72
2023/10/26 08:31:09;;;;;;;2.55;2.45;;;;;;;21.28;76.00;96104.72;5022174;28;20057;-67
2023/10/26 08:33:36;;;;;;;2.30;2.30;;;;;;;21.03;77.66;96111.34;5023156;28;20045;-71
2023/10/26 08:36:04;;;;;;;2.60;2.50;;;;;;;21.66;74.88;96120.06;5012695;28;20549;-57
2023/10/26 08:38:32;;;;;;;2.67;2.58;;;;;;;21.87;74.39;96124.06;5021311;28;20045;-67
2023/10/26 08:40:59;;;;;;;2.60;2.50;;;;;;;22.38;72.10;96114.53;5025786;28;20144;-57
2023/10/26 08:43:28;;;;;;;2.80;2.70;;;;;;;22.65;71.03;96122.28;5026115;28;20076;-55
2023/10/26 08:45:58;;;;;;;2.80;2.70;;;;;;;22.93;69.74;96120.19;5024507;28;20068;-56
2023/10/26 08:48:28;;;;;;;2.72;2.63;;;;;;;23.40;67.78;96131.69;5026385;28;20045;-61
2023/10/26 08:50:55;;;;;;;2.63;2.53;;;;;;;23.65;66.25;96131.28;5025578;28;20068;-63
2023/10/26 08:53:22;;;;;;;2.70;2.60;;;;;;;23.49;65.21;96100.59;5023355;28;20136;-60
2023/10/26 08:55:54;;;;;;;2.85;2.75;;;;;;;23.92;64.43;96131.16;5024638;28;20055;-65
2023/10/26 08:58:21;;;;;;;3.00;2.90;;;;;;;23.71;64.00;96084.13;5022805;28;20107;-59
2023/10/26 09:00:51;;;;;;;3.00;2.90;;;;;;;18.10;62.99;95171.31;5020384;28;20042;-64
2023/10/26 09:03:18;;;;;;;3.20;3.10;;;;;;;24.26;61.96;96102.34;5025346;28;20097;-60
2023/10/26 09:05:55;;;;;;;3.10;3.00;;;;;;;24.32;61.20;96094.75;5025762;28;20089;-64
2023/10/26 09:08:23;;;;;;;2.97;2.88;;;;;;;24.60;61.84;96103.78;5021522;28;20041;-63
2023/10/26 09:10:51;;;;;;;2.95;2.85;;;;;;;24.55;60.83;96096.75;5006387;28;20060;-58
2023/10/26 09:13:30;;;;;;;3.03;2.92;;;;;;;24.52;60.71;96109.06;4997933;28;20516;-65
2023/10/26 09:15:59;;;;;;;3.08;2.97;;;;;;;23.79;64.21;96102.28;5021798;28;20136;-59
2023/10/26 09:18:26;;;;;;;3.15;3.05;;;;;;;24.16;63.52;96103.69;5026133;28;20119;-66
2023/10/26 09:21:03;;;;;;;2.83;2.72;;;;;;;23.82;64.25;96090.03;5025454;28;20045;-57
2023/10/26 09:23:31;;;;;;;2.70;2.60;;;;;;;23.42;65.26;96113.03;5014167;28;20152;-65
2023/10/26 09:26:08;;;;;;;2.70;2.60;;;;;;;23.49;64.90;96053.28;5020374;28;20063;-65
2023/10/26 09:28:54;;;;;;;3.10;3.00;;;;;;;23.09;66.43;96100.06;5013671;28;20064;-62
2023/10/26 09:31:23;;;;;;;3.22;3.13;;;;;;;23.80;64.67;96092.56;5020884;28;20049;-56
2023/10/26 09:33:50;;;;;;;2.80;2.70;;;;;;;24.34;63.62;96086.56;5023895;28;20047;-69
2023/10/26 09:36:20;;;;;;;3.03;2.92;;;;;;;24.59;61.50;96080.38;5026423;28;20140;-70
2023/10/26 09:38:47;;;;;;;3.28;3.17;;;;;;;24.60;61.89;96064.94;5007922;28;20555;-57
2023/10/26 09:41:18;;;;;;;3.00;2.90;;;;;;;24.63;60.42;96066.78;5025505;28;20057;-70
2023/10/26 09:43:46;;;;;;;3.20;3.10;;;;;;;24.34;60.40;96040.47;5025430;28;20053;-69
2023/10/26 09:46:14;;;;;;;3.28;3.17;;;;;;;23.32;64.09;96040.03;5025712;28;20052;-70
2023/10/26 09:48:42;;;;;;;3.03;2.92;;;;;;;23.79;63.61;96034.41;5010837;28;20096;-55
2023/10/26 09:51:10;;;;;;;3.13;3.03;;;;;;;24.59;61.16;96057.72;5025157;28;20046;-69
2023/10/26 09:53:40;;;;;;;3.35;3.25;;;;;;;24.95;58.61;96062.25;5007930;28;20087;-67
2023/10/26 09:56:17;;;;;;;3.20;3.10;;;;;;;24.09;59.58;96061.56;5021591;28;20049;-67
2023/10/26 09:58:44;;;;;;;3.47;3.38;;;;;;;24.26;58.09;96005.31;5025260;28;20052;-70
2023/10/26 10:02:04;;;;;;;3.03;2.92;;;;;;;25.15;55.90;96060.28;5025317;28;20051;-69
2023/10/26 10:04:37;;;;;;;3.35;3.25;;;;;;;24.40;55.03;96050.66;5020388;28;20041;-60
2023/10/26 10:07:05;;;;;;;3.40;3.30;;;;;;;24.40;55.12;95985.53;5020798;28;20056;-63
2023/10/26 10:09:32;;;;;;;3.28;3.17;;;;;;;25.11;54.67;96048.38;5018788;28;20264;-73
2023/10/26 10:12:09;;;;;;;3.42;3.33;;;;;;;24.88;53.89;96048.47;5023854;28;20335;-67
2023/10/26 10:14:49;;;;;;;3.28;3.17;;;;;;;24.86;53.01;96043.31;5024106;28;20128;-58
2023/10/26 10:17:17;;;;;;;3.42;3.33;;;;;;;24.84;52.92;95960.84;5030877;28;20061;-56
2023/10/26 10:19:47;;;;;;;3.45;3.35;;;;;;;25.37;53.29;96013.75;5020868;28;20053;-63
2023/10/26 10:22:38;;;;;;;3.42;3.33;;;;;;;25.56;53.73;96032.84;5023209;28;20060;-67
2023/10/26 10:25:09;;;;;;;3.17;3.08;;;;;;;25.35;53.56;96033.31;5020714;28;20060;-65
2023/10/26 10:27:48;;;;;;;2.95;2.85;;;;;;;24.69;55.63;96033.72;5015643;28;20042;-59
2023/10/26 10:30:21;;;;;;;3.05;2.95;;;;;;;24.55;55.52;96028.78;5020652;28;20106;-63
2023/10/26 10:32:50;;;;;;;3.17;3.07;;;;;;;23.94;57.06;96029.59;5023444;28;20519;-58
2023/10/26 10:35:43;;;;;;;2.80;2.70;;;;;;;24.05;57.98;96026.25;5019888;28;20049;-64
2023/10/26 10:38:13;;;;;;;3.10;3.00;;;;;;;23.62;58.64;96007.81;5019022;28;20166;-64
2023/10/26 10:41:07;;;;;;;3.25;3.15;;;;;;;23.70;59.41;95969.44;5022761;28;20037;-64
2023/10/26 10:43:43;;;;;;;3.13;3.03;;;;;;;23.97;59.13;95988.25;5021042;28;20049;-64
2023/10/26 10:46:26;;;;;;;2.70;2.60;;;;;;;23.82;59.30;95966.34;5006468;28;20814;-62
2023/10/26 10:49:08;;;;;;;2.70;2.60;;;;;;;24.09;59.21;95958.94;5012742;28;20049;-57
2023/10/26 10:51:37;;;;;;;2.83;2.72;;;;;;;23.68;60.04;95971.94;5001549;28;20133;-69
2023/10/26 10:54:11;;;;;;;2.60;2.50;;;;;;;23.39;60.48;95915.31;5020688;28;20050;-58
2023/10/26 10:56:57;;;;;;;3.10;3.00;;;;;;;24.44;57.90;95954.97;5023772;28;20053;-58
2023/10/26 10:59:26;;;;;;;3.15;3.05;;;;;;;23.30;57.92;95788.22;5021778;28;20130;-68
2023/10/26 11:02:19;;;;;;;3.05;2.95;;;;;;;24.06;57.88;95966.34;5018561;28;20053;-60
2023/10/26 11:04:53;;;;;;;3.15;3.05;;;;;;;24.13;58.31;95965.19;5001482;28;20081;-66
2023/10/26 11:07:31;;;;;;;3.28;3.17;;;;;;;24.72;57.25;95959.09;5013732;28;20093;-62
2023/10/26 11:09:59;;;;;;;3.30;3.20;;;;;;;24.87;55.66;95954.19;4998144;28;20042;-61
2023/10/26 11:12:26;;;;;;;3.28;3.17;;;;;;;24.35;56.67;95952.22;5014962;28;20050;-69
2023/10/26 11:14:54;;;;;;;3.78;3.67;;;;;;;24.44;55.33;95920.97;5015348;28;20050;-59
2023/10/26 11:17:23;;;;;;;3.42;3.33;;;;;;;24.63;55.24;95950.66;5023269;28;20057;-62
2023/10/26 11:19:50;;;;;;;3.40;3.30;;;;;;;25.10;53.30;95944.00;5002318;28;20502;-61
2023/10/26 11:22:18;;;;;;;3.15;3.05;;;;;;;25.29;52.70;95950.97;5023890;28;20053;-62
2023/10/26 11:24:45;;;;;;;3.30;3.20;;;;;;;25.19;52.06;95913.47;5023411;28;20056;-57
2023/10/26 11:27:14;;;;;;;3.63;3.53;;;;;;;25.22;51.74;95917.38;5022658;28;20045;-55
2023/10/26 11:29:42;;;;;;;3.05;2.95;;;;;;;24.51;53.29;95937.59;5023726;28;20060;-55
2023/10/26 11:32:29;;;;;;;3.50;3.40;;;;;;;24.45;53.29;95928.22;5020875;28;20044;-57
2023/10/26 11:35:07;;;;;;;3.50;3.40;;;;;;;24.55;53.99;95932.50;5001285;28;20094;-66
2023/10/26 11:37:55;;;;;;;3.00;2.90;;;;;;;25.04;51.59;95901.38;5021657;28;20435;-66